Etusivu
METAR-TAF:

METAR-TAF

Lentoasemat :

Méxicon kansainvälinen lentoasema

México, Meksiko

Leveyspiiri: 19-26N, Pituuspiiri: 099-06W, korkeus merenpinnasta: 2238 m

Tämänhetkinen sää

Tämä raportti tehtiin 1 tunti ja 41 minuuttia sitten, kello 09.41 UTC
tyyntä
Lämpötila 15°C
Kosteus 48%
Ilmanpaine 1023 hPa
Näkyvyys: 16.1 km
Hajonneita pilviä 22000 ft:n korkeudessa

METAR: MMMX 040941Z 00000KT 10SM BKN220 15/04 A3022 NOSIG RMK 8/008 HZY

Aika: 05:22 (11:22 UTC)

Sääennuste

Tämä raportti tehtiin 6 tuntia ja 24 minuuttia sitten, kello 04.58 UTC
Ennuste voimassa 04. päivästä klo 06 UTC - 05. päivään klo 06 UTC
Tuuli 5 kn idästä/kaakosta
Näkyvyys: 10 km
selkeää
From 04. päivästä klo 1800 UTC
Tuuli 12 kn etelästä
Näkyvyys: 10 km
Hajonneita pilviä 25000 ft:n korkeudessa
From 05. päivästä klo 0500 UTC
Tuuli 5 kn idästä/koillisesta
Näkyvyys: 10 km
selkeää

TAF: MMMX 040458Z 0406/0506 12005KT P6SM SKC TX28/0421Z TN11/0412Z FM041800 18012KT P6SM BKN250 FM050500 07005KT P6SM SKC

Säähavainnot ja -ennusteet yli 4000 lentoasemalta (METAR- ja TAF-raportit).

Käytössä olevat sääasemat on merkitty karttaan keltaisilla ja punaisilla pisteillä.

Aseta hiiri pisteen päälle nähdäksesi sääaseman nimen.

Klikkaa sitten nähdäksesi säähavainnot ja -ennusteet.

Kartan vaihtaminen: klikkaa mustalla rastilla varustettuja vihreitä pisteitä, niin voit zoomata sisään; viivalla varustettua vihreää pistettä, niin voit zoomata ulos tai vihreitä nuolia, niin pääset viereisille kartoille.


METAR-TAF: